EDT,Max TemperatureF,Mean TemperatureF,Min TemperatureF,Max Dew PointF,MeanDew PointF,Min DewpointF,Max Humidity, Mean Humidity, Min Humidity, Max Sea Level PressureIn, Mean Sea Level PressureIn, Min Sea Level PressureIn, Max VisibilityMiles, Mean VisibilityMiles, Min VisibilityMiles, Max Wind SpeedMPH, Mean Wind SpeedMPH, Max Gust SpeedMPH,PrecipitationIn, CloudCover, Events, WindDirDegrees
2013-4-1,87,81,74,70,69,66,82,69,55,30.07,30.03,29.99,10,9,6,13,4,20,0.00,0,,180
2013-4-2,85,79,73,68,65,63,84,68,51,30.10,30.05,30.01,10,9,7,8,3,12,0.00,0,,1
2013-4-3,86,80,74,70,68,64,74,68,61,30.06,30.02,29.97,10,10,9,13,7,17,0.00,0,,113
2013-4-4,87,83,78,72,71,69,74,67,59,30.04,29.99,29.93,10,10,10,12,7,17,0.00,2,,140
2013-4-5,81,75,68,72,65,59,84,74,64,30.00,29.92,29.84,10,7,0,25,9,32,1.89,7,Rain-Thunderstorm,315
2013-4-6,77,72,67,63,58,54,73,62,50,30.07,30.02,29.96,10,10,10,17,9,25,0.00,4,,347
2013-4-7,84,79,74,65,63,61,68,60,51,30.10,30.06,29.99,10,10,10,16,9,24,0.01,4,,87
2013-4-8,85,81,76,66,64,62,69,62,54,30.11,30.06,30.01,10,10,10,15,10,21,0.00,1,,88
2013-4-9,86,82,77,68,66,63,69,64,58,30.12,30.07,30.04,10,10,10,16,10,24,0.00,1,,87
2013-4-10,87,83,78,71,70,67,74,68,61,30.07,30.01,29.96,10,10,10,14,10,23,0.00,1,,100
2013-4-11,86,82,77,73,72,70,74,70,65,29.99,29.94,29.88,10,9,1,15,11,24,0.15,4,Rain,129
2013-4-12,89,85,80,74,73,72,79,69,59,29.98,29.93,29.89,10,10,8,14,6,23,0.02,3,,145
2013-4-13,89,84,78,74,72,69,79,69,59,29.98,29.94,29.90,10,10,6,13,6,18,0.04,3,Rain,215
2013-4-14,89,85,81,73,72,71,79,68,56,29.97,29.94,29.89,10,10,10,13,8,20,0.00,1,,130
2013-4-15,91,87,82,75,73,72,74,65,56,30.04,29.98,29.93,10,9,6,10,5,16,0.00,2,,148
2013-4-16,90,85,80,74,72,69,74,65,55,30.09,30.05,30.01,10,10,9,15,8,20,0.00,2,,96
2013-4-17,90,85,80,72,69,68,69,61,52,30.08,30.04,30.00,10,10,10,14,9,20,T,3,,87
2013-4-18,89,83,77,72,70,68,71,63,55,30.04,30.00,29.97,10,10,4,16,10,25,0.05,3,Rain,106
2013-4-19,91,86,81,73,71,69,74,65,55,30.04,30.00,29.96,10,10,10,17,9,25,0.00,1,,137
2013-4-20,93,86,78,74,72,67,79,67,55,30.07,30.01,29.97,10,10,10,12,5,20,0.01,2,Thunderstorm,199
2013-4-21,88,81,73,72,69,64,79,66,53,30.08,30.04,29.99,10,9,2,15,6,20,0.10,2,Rain-Thunderstorm,93
2013-4-22,86,80,74,72,69,66,82,72,61,30.06,30.01,29.93,10,8,0,17,5,24,1.41,5,Rain-Thunderstorm,89
2013-4-23,88,82,76,70,67,62,76,61,46,30.06,30.00,29.95,10,10,10,22,13,29,T,3,,57
2013-4-24,87,82,76,65,62,59,56,50,44,30.12,30.07,30.02,10,10,10,22,11,26,0.00,1,,77
2013-4-25,86,82,77,62,59,57,54,47,40,30.19,30.13,30.07,10,10,10,15,10,22,0.00,0,,70
2013-4-26,86,81,76,64,60,59,60,52,44,30.21,30.16,30.11,10,10,10,18,10,24,0.00,0,,66
2013-4-27,86,82,77,66,61,59,62,52,42,30.18,30.11,30.05,10,10,10,17,12,24,0.00,1,,70
2013-4-28,87,81,74,70,66,64,74,60,46,30.07,30.03,29.97,10,10,6,16,11,24,0.03,4,Rain,100
2013-4-29,87,81,74,72,69,66,71,64,57,30.01,29.98,29.93,10,8,1,20,8,28,0.41,4,Rain-Thunderstorm,118
2013-4-30,90,85,79,71,69,67,69,60,50,29.99,29.95,29.91,10,10,10,15,8,24,T,1,,142